sensor_id;sensor_type;location;lat;lon;timestamp;P1;durP1;ratioP1;P2;durP2;ratioP2
47171;SDS011;33093;47.228;9.608;2022-08-16T00:02:01;9.02;;;5.18;;
47171;SDS011;33093;47.228;9.608;2022-08-16T00:04:28;7.55;;;4.68;;
47171;SDS011;33093;47.228;9.608;2022-08-16T00:06:53;8.90;;;5.47;;
47171;SDS011;33093;47.228;9.608;2022-08-16T00:09:20;5.70;;;4.00;;
47171;SDS011;33093;47.228;9.608;2022-08-16T00:11:46;7.60;;;4.53;;
47171;SDS011;33093;47.228;9.608;2022-08-16T00:14:14;6.00;;;4.57;;
47171;SDS011;33093;47.228;9.608;2022-08-16T00:16:43;6.80;;;3.88;;
47171;SDS011;33093;47.228;9.608;2022-08-16T00:19:09;8.15;;;4.68;;
47171;SDS011;33093;47.228;9.608;2022-08-16T00:21:36;6.25;;;4.50;;
47171;SDS011;33093;47.228;9.608;2022-08-16T00:24:01;6.32;;;4.38;;
47171;SDS011;33093;47.228;9.608;2022-08-16T00:26:27;9.90;;;5.53;;
47171;SDS011;33093;47.228;9.608;2022-08-16T00:28:52;7.70;;;5.97;;
47171;SDS011;33093;47.228;9.608;2022-08-16T00:31:18;6.45;;;4.95;;
47171;SDS011;33093;47.228;9.608;2022-08-16T00:33:44;8.15;;;5.25;;
47171;SDS011;33093;47.228;9.608;2022-08-16T00:36:09;11.98;;;7.00;;
47171;SDS011;33093;47.228;9.608;2022-08-16T00:38:35;9.73;;;5.95;;
47171;SDS011;33093;47.228;9.608;2022-08-16T00:41:01;8.88;;;6.10;;
47171;SDS011;33093;47.228;9.608;2022-08-16T00:43:28;8.15;;;5.25;;
47171;SDS011;33093;47.228;9.608;2022-08-16T00:46:19;11.07;;;5.57;;
47171;SDS011;33093;47.228;9.608;2022-08-16T00:48:47;7.40;;;5.13;;
47171;SDS011;33093;47.228;9.608;2022-08-16T00:51:14;8.90;;;5.50;;
47171;SDS011;33093;47.228;9.608;2022-08-16T00:53:41;9.73;;;5.80;;
47171;SDS011;33093;47.228;9.608;2022-08-16T00:56:08;9.35;;;6.82;;
47171;SDS011;33093;47.228;9.608;2022-08-16T00:58:37;9.57;;;7.07;;
47171;SDS011;33093;47.228;9.608;2022-08-16T01:01:04;14.40;;;8.00;;
47171;SDS011;33093;47.228;9.608;2022-08-16T01:03:31;10.20;;;7.07;;
47171;SDS011;33093;47.228;9.608;2022-08-16T01:05:57;10.95;;;7.07;;
47171;SDS011;33093;47.228;9.608;2022-08-16T01:08:23;14.38;;;6.47;;
47171;SDS011;33093;47.228;9.608;2022-08-16T01:10:50;9.82;;;6.40;;
47171;SDS011;33093;47.228;9.608;2022-08-16T01:13:24;7.25;;;5.70;;
47171;SDS011;33093;47.228;9.608;2022-08-16T01:15:58;10.10;;;6.00;;
47171;SDS011;33093;47.228;9.608;2022-08-16T01:18:27;8.55;;;5.97;;
47171;SDS011;33093;47.228;9.608;2022-08-16T01:20:59;7.50;;;5.50;;
47171;SDS011;33093;47.228;9.608;2022-08-16T01:26:18;7.75;;;5.65;;
47171;SDS011;33093;47.228;9.608;2022-08-16T01:28:44;9.52;;;4.70;;
47171;SDS011;33093;47.228;9.608;2022-08-16T01:31:10;9.40;;;5.22;;
47171;SDS011;33093;47.228;9.608;2022-08-16T01:33:37;9.18;;;5.30;;
47171;SDS011;33093;47.228;9.608;2022-08-16T01:36:07;6.13;;;4.43;;
47171;SDS011;33093;47.228;9.608;2022-08-16T01:38:35;7.60;;;4.50;;
47171;SDS011;33093;47.228;9.608;2022-08-16T01:41:07;9.05;;;6.13;;
47171;SDS011;33093;47.228;9.608;2022-08-16T01:43:36;7.40;;;5.28;;
47171;SDS011;33093;47.228;9.608;2022-08-16T01:46:05;6.63;;;4.80;;
47171;SDS011;33093;47.228;9.608;2022-08-16T01:48:33;10.38;;;6.03;;
47171;SDS011;33093;47.228;9.608;2022-08-16T01:50:59;11.73;;;5.72;;
47171;SDS011;33093;47.228;9.608;2022-08-16T01:53:26;8.35;;;6.20;;
47171;SDS011;33093;47.228;9.608;2022-08-16T01:56:00;6.93;;;5.60;;
47171;SDS011;33093;47.228;9.608;2022-08-16T01:58:28;9.88;;;6.00;;
47171;SDS011;33093;47.228;9.608;2022-08-16T02:00:53;9.57;;;4.53;;
47171;SDS011;33093;47.228;9.608;2022-08-16T02:03:19;8.70;;;5.68;;
47171;SDS011;33093;47.228;9.608;2022-08-16T02:05:44;8.43;;;5.82;;
47171;SDS011;33093;47.228;9.608;2022-08-16T02:08:10;9.05;;;5.30;;
47171;SDS011;33093;47.228;9.608;2022-08-16T02:10:36;8.23;;;5.30;;
47171;SDS011;33093;47.228;9.608;2022-08-16T02:13:05;9.27;;;5.75;;
47171;SDS011;33093;47.228;9.608;2022-08-16T02:15:33;8.45;;;5.05;;
47171;SDS011;33093;47.228;9.608;2022-08-16T02:17:59;8.30;;;6.35;;
47171;SDS011;33093;47.228;9.608;2022-08-16T02:20:26;7.00;;;4.65;;
47171;SDS011;33093;47.228;9.608;2022-08-16T02:22:53;6.95;;;4.40;;
47171;SDS011;33093;47.228;9.608;2022-08-16T02:25:20;9.27;;;5.00;;
47171;SDS011;33093;47.228;9.608;2022-08-16T02:27:46;8.02;;;5.03;;
47171;SDS011;33093;47.228;9.608;2022-08-16T02:30:14;9.43;;;5.95;;
47171;SDS011;33093;47.228;9.608;2022-08-16T02:32:43;9.43;;;6.15;;
47171;SDS011;33093;47.228;9.608;2022-08-16T02:35:10;7.32;;;5.32;;
47171;SDS011;33093;47.228;9.608;2022-08-16T02:37:36;6.30;;;4.80;;
47171;SDS011;33093;47.228;9.608;2022-08-16T02:40:02;8.50;;;5.10;;
47171;SDS011;33093;47.228;9.608;2022-08-16T02:42:29;7.63;;;5.20;;
47171;SDS011;33093;47.228;9.608;2022-08-16T02:44:54;8.60;;;5.60;;
47171;SDS011;33093;47.228;9.608;2022-08-16T02:47:20;9.45;;;6.10;;
47171;SDS011;33093;47.228;9.608;2022-08-16T02:49:47;9.05;;;5.65;;
47171;SDS011;33093;47.228;9.608;2022-08-16T02:52:14;7.30;;;5.50;;
47171;SDS011;33093;47.228;9.608;2022-08-16T02:54:40;10.35;;;7.65;;
47171;SDS011;33093;47.228;9.608;2022-08-16T02:57:06;9.02;;;7.25;;
47171;SDS011;33093;47.228;9.608;2022-08-16T02:59:32;9.60;;;6.03;;
47171;SDS011;33093;47.228;9.608;2022-08-16T03:02:00;8.30;;;5.95;;
47171;SDS011;33093;47.228;9.608;2022-08-16T03:04:28;9.88;;;6.60;;
47171;SDS011;33093;47.228;9.608;2022-08-16T03:06:55;9.07;;;7.13;;
47171;SDS011;33093;47.228;9.608;2022-08-16T03:09:33;11.35;;;5.93;;
47171;SDS011;33093;47.228;9.608;2022-08-16T03:12:00;7.60;;;5.95;;
47171;SDS011;33093;47.228;9.608;2022-08-16T03:14:28;9.55;;;5.60;;
47171;SDS011;33093;47.228;9.608;2022-08-16T03:16:56;10.50;;;5.88;;
47171;SDS011;33093;47.228;9.608;2022-08-16T03:19:23;9.48;;;6.32;;
47171;SDS011;33093;47.228;9.608;2022-08-16T03:21:50;8.00;;;4.40;;
47171;SDS011;33093;47.228;9.608;2022-08-16T03:24:15;8.65;;;5.93;;
47171;SDS011;33093;47.228;9.608;2022-08-16T03:26:41;9.13;;;4.78;;
47171;SDS011;33093;47.228;9.608;2022-08-16T03:29:07;10.10;;;6.97;;
47171;SDS011;33093;47.228;9.608;2022-08-16T03:31:33;8.23;;;6.97;;
47171;SDS011;33093;47.228;9.608;2022-08-16T03:33:59;8.85;;;7.07;;
47171;SDS011;33093;47.228;9.608;2022-08-16T03:36:25;8.10;;;6.75;;
47171;SDS011;33093;47.228;9.608;2022-08-16T03:38:55;9.13;;;7.72;;
47171;SDS011;33093;47.228;9.608;2022-08-16T03:41:21;8.45;;;6.32;;
47171;SDS011;33093;47.228;9.608;2022-08-16T03:43:48;10.10;;;6.25;;
47171;SDS011;33093;47.228;9.608;2022-08-16T03:46:17;9.10;;;6.95;;
47171;SDS011;33093;47.228;9.608;2022-08-16T03:48:45;10.18;;;6.82;;
47171;SDS011;33093;47.228;9.608;2022-08-16T03:51:15;10.88;;;7.32;;
47171;SDS011;33093;47.228;9.608;2022-08-16T03:53:47;9.00;;;6.82;;
47171;SDS011;33093;47.228;9.608;2022-08-16T03:56:13;9.68;;;7.60;;
47171;SDS011;33093;47.228;9.608;2022-08-16T03:58:40;11.82;;;8.18;;
47171;SDS011;33093;47.228;9.608;2022-08-16T04:01:06;11.80;;;7.68;;
47171;SDS011;33093;47.228;9.608;2022-08-16T04:03:33;11.75;;;6.82;;
47171;SDS011;33093;47.228;9.608;2022-08-16T04:05:59;9.85;;;7.32;;
47171;SDS011;33093;47.228;9.608;2022-08-16T04:08:25;10.52;;;6.68;;
47171;SDS011;33093;47.228;9.608;2022-08-16T04:10:54;9.70;;;7.70;;
47171;SDS011;33093;47.228;9.608;2022-08-16T04:13:22;10.57;;;5.85;;
47171;SDS011;33093;47.228;9.608;2022-08-16T04:15:48;11.10;;;6.65;;
47171;SDS011;33093;47.228;9.608;2022-08-16T04:20:50;9.82;;;7.40;;
47171;SDS011;33093;47.228;9.608;2022-08-16T04:23:20;9.50;;;6.93;;
47171;SDS011;33093;47.228;9.608;2022-08-16T04:25:48;7.60;;;6.30;;
47171;SDS011;33093;47.228;9.608;2022-08-16T04:28:14;9.05;;;6.00;;
47171;SDS011;33093;47.228;9.608;2022-08-16T04:30:40;9.73;;;6.63;;
47171;SDS011;33093;47.228;9.608;2022-08-16T04:33:08;9.27;;;6.97;;
47171;SDS011;33093;47.228;9.608;2022-08-16T04:35:36;9.82;;;7.72;;
47171;SDS011;33093;47.228;9.608;2022-08-16T04:38:02;11.00;;;7.82;;
47171;SDS011;33093;47.228;9.608;2022-08-16T04:40:34;9.95;;;7.07;;
47171;SDS011;33093;47.228;9.608;2022-08-16T04:43:02;9.90;;;6.65;;
47171;SDS011;33093;47.228;9.608;2022-08-16T04:45:29;10.23;;;7.45;;
47171;SDS011;33093;47.228;9.608;2022-08-16T04:47:55;8.93;;;6.20;;
47171;SDS011;33093;47.228;9.608;2022-08-16T04:50:24;10.02;;;6.45;;
47171;SDS011;33093;47.228;9.608;2022-08-16T04:53:14;9.05;;;6.30;;
47171;SDS011;33093;47.228;9.608;2022-08-16T04:55:42;9.65;;;6.45;;
47171;SDS011;33093;47.228;9.608;2022-08-16T04:58:09;9.32;;;6.55;;
47171;SDS011;33093;47.228;9.608;2022-08-16T05:00:35;10.32;;;6.43;;
47171;SDS011;33093;47.228;9.608;2022-08-16T05:03:11;10.57;;;6.85;;
47171;SDS011;33093;47.228;9.608;2022-08-16T05:05:42;8.80;;;6.37;;
47171;SDS011;33093;47.228;9.608;2022-08-16T05:08:09;10.02;;;6.50;;
47171;SDS011;33093;47.228;9.608;2022-08-16T05:10:39;13.68;;;5.78;;
47171;SDS011;33093;47.228;9.608;2022-08-16T05:13:05;7.97;;;6.28;;
47171;SDS011;33093;47.228;9.608;2022-08-16T05:15:32;9.00;;;6.15;;
47171;SDS011;33093;47.228;9.608;2022-08-16T05:17:58;9.82;;;6.32;;
47171;SDS011;33093;47.228;9.608;2022-08-16T05:20:27;11.35;;;6.47;;
47171;SDS011;33093;47.228;9.608;2022-08-16T05:22:55;13.32;;;7.18;;
47171;SDS011;33093;47.228;9.608;2022-08-16T05:25:21;10.02;;;6.90;;
47171;SDS011;33093;47.228;9.608;2022-08-16T05:27:50;10.52;;;7.15;;
47171;SDS011;33093;47.228;9.608;2022-08-16T05:30:18;9.15;;;7.00;;
47171;SDS011;33093;47.228;9.608;2022-08-16T05:32:44;8.48;;;6.80;;
47171;SDS011;33093;47.228;9.608;2022-08-16T05:35:12;8.98;;;7.05;;
47171;SDS011;33093;47.228;9.608;2022-08-16T05:37:55;10.45;;;7.97;;
47171;SDS011;33093;47.228;9.608;2022-08-16T05:40:21;8.68;;;7.22;;
47171;SDS011;33093;47.228;9.608;2022-08-16T05:42:47;9.90;;;7.45;;
47171;SDS011;33093;47.228;9.608;2022-08-16T05:45:13;9.73;;;6.82;;
47171;SDS011;33093;47.228;9.608;2022-08-16T05:47:40;9.35;;;6.25;;
47171;SDS011;33093;47.228;9.608;2022-08-16T05:50:06;10.65;;;6.63;;
47171;SDS011;33093;47.228;9.608;2022-08-16T05:52:33;7.47;;;5.63;;
47171;SDS011;33093;47.228;9.608;2022-08-16T05:55:01;9.50;;;6.32;;
47171;SDS011;33093;47.228;9.608;2022-08-16T05:57:31;8.80;;;6.28;;
47171;SDS011;33093;47.228;9.608;2022-08-16T05:59:57;7.85;;;5.75;;
47171;SDS011;33093;47.228;9.608;2022-08-16T06:02:23;10.88;;;6.10;;
47171;SDS011;33093;47.228;9.608;2022-08-16T06:04:52;15.75;;;7.70;;
47171;SDS011;33093;47.228;9.608;2022-08-16T06:07:18;9.60;;;7.03;;
47171;SDS011;33093;47.228;9.608;2022-08-16T06:09:50;9.63;;;6.75;;
47171;SDS011;33093;47.228;9.608;2022-08-16T06:12:15;8.55;;;6.40;;
47171;SDS011;33093;47.228;9.608;2022-08-16T06:14:42;12.82;;;7.65;;
47171;SDS011;33093;47.228;9.608;2022-08-16T06:17:08;11.70;;;7.55;;
47171;SDS011;33093;47.228;9.608;2022-08-16T06:19:34;8.68;;;6.43;;
47171;SDS011;33093;47.228;9.608;2022-08-16T06:22:09;9.60;;;6.15;;
47171;SDS011;33093;47.228;9.608;2022-08-16T06:24:38;9.07;;;6.13;;
47171;SDS011;33093;47.228;9.608;2022-08-16T06:27:04;11.07;;;6.65;;
47171;SDS011;33093;47.228;9.608;2022-08-16T06:29:31;10.35;;;6.60;;
47171;SDS011;33093;47.228;9.608;2022-08-16T06:31:59;7.70;;;6.70;;
47171;SDS011;33093;47.228;9.608;2022-08-16T06:34:26;7.65;;;5.70;;
47171;SDS011;33093;47.228;9.608;2022-08-16T06:36:53;8.07;;;4.85;;
47171;SDS011;33093;47.228;9.608;2022-08-16T06:39:21;7.97;;;5.28;;
47171;SDS011;33093;47.228;9.608;2022-08-16T06:41:59;7.97;;;6.03;;
47171;SDS011;33093;47.228;9.608;2022-08-16T06:44:47;9.88;;;6.13;;
47171;SDS011;33093;47.228;9.608;2022-08-16T06:47:31;7.38;;;5.15;;
47171;SDS011;33093;47.228;9.608;2022-08-16T06:49:57;7.22;;;4.72;;
47171;SDS011;33093;47.228;9.608;2022-08-16T06:52:33;10.02;;;4.78;;
47171;SDS011;33093;47.228;9.608;2022-08-16T06:55:03;6.50;;;4.68;;
47171;SDS011;33093;47.228;9.608;2022-08-16T06:57:30;7.10;;;4.10;;
47171;SDS011;33093;47.228;9.608;2022-08-16T06:59:55;6.47;;;4.30;;
47171;SDS011;33093;47.228;9.608;2022-08-16T07:02:23;9.23;;;4.60;;
47171;SDS011;33093;47.228;9.608;2022-08-16T07:04:50;7.07;;;4.93;;
47171;SDS011;33093;47.228;9.608;2022-08-16T07:07:19;8.05;;;4.70;;
47171;SDS011;33093;47.228;9.608;2022-08-16T07:09:45;6.63;;;4.30;;
47171;SDS011;33093;47.228;9.608;2022-08-16T07:12:12;7.75;;;5.53;;
47171;SDS011;33093;47.228;9.608;2022-08-16T07:14:40;7.05;;;5.18;;
